Time;durP1;ratioP1;P1;durP2;ratioP2;P2;SDS_P1;SDS_P2;PMS_P1;PMS_P2;Temp;Humidity;BMP_temperature;BMP_pressure;BME280_temperature;BME280_humidity;BME280_pressure;Samples;Min_cycle;Max_cycle;Signal;HPM_P1;HPM_P2
2023/12/04 00:00:38;;;;;;;36.47;19.98;;;1.00;99.90;;;;;;4992859;28;20038;-63
2023/12/04 00:03:04;;;;;;;39.92;21.67;;;0.80;99.90;;;;;;4993327;28;20133;-63
2023/12/04 00:05:29;;;;;;;36.83;19.75;;;0.80;99.90;;;;;;4993361;28;20038;-63
2023/12/04 00:07:55;;;;;;;40.10;20.63;;;0.90;99.90;;;;;;4993721;28;20033;-63
2023/12/04 00:10:21;;;;;;;36.92;20.73;;;0.90;99.90;;;;;;4972256;28;20041;-63
2023/12/04 00:12:47;;;;;;;39.13;19.60;;;0.90;99.90;;;;;;4992744;28;20112;-63
2023/12/04 00:15:13;;;;;;;37.58;21.42;;;1.00;99.90;;;;;;4991750;28;20042;-63
2023/12/04 00:17:39;;;;;;;36.90;20.75;;;0.90;99.90;;;;;;4989633;28;20092;-63
2023/12/04 00:20:09;;;;;;;37.60;20.95;;;0.90;99.90;;;;;;4989171;28;20594;-62
2023/12/04 00:22:36;;;;;;;37.67;20.05;;;0.90;99.90;;;;;;4990114;28;20142;-63
2023/12/04 00:25:03;;;;;;;36.47;20.70;;;0.90;99.90;;;;;;4990766;28;20117;-63
2023/12/04 00:27:29;;;;;;;40.72;20.52;;;1.00;99.90;;;;;;4990586;28;20050;-63
2023/12/04 00:29:55;;;;;;;36.03;20.23;;;0.80;99.90;;;;;;4988988;28;20046;-63
2023/12/04 00:32:21;;;;;;;38.35;21.98;;;0.90;99.90;;;;;;4991791;28;20556;-63
2023/12/04 00:34:47;;;;;;;38.03;21.63;;;0.90;99.90;;;;;;4989802;28;20057;-63
2023/12/04 00:37:13;;;;;;;37.83;20.35;;;0.90;99.90;;;;;;4992136;28;20041;-63
2023/12/04 00:39:38;;;;;;;35.95;21.42;;;0.90;99.90;;;;;;4993236;28;20041;-64
2023/12/04 00:42:05;;;;;;;39.08;21.55;;;0.90;99.90;;;;;;4991739;28;20516;-64
2023/12/04 00:44:30;;;;;;;37.38;21.58;;;0.90;99.90;;;;;;4992356;28;20042;-63
2023/12/04 00:46:56;;;;;;;40.70;21.83;;;1.00;99.90;;;;;;4994099;28;20073;-63
2023/12/04 00:49:22;;;;;;;39.65;22.58;;;0.80;99.90;;;;;;4992360;28;20042;-63
2023/12/04 00:51:47;;;;;;;38.13;21.35;;;0.90;99.90;;;;;;4989190;28;20509;-63
2023/12/04 00:54:13;;;;;;;37.92;21.85;;;0.80;99.90;;;;;;4991826;28;20429;-63
2023/12/04 00:56:39;;;;;;;39.33;21.13;;;0.80;99.90;;;;;;4986236;28;20567;-62
2023/12/04 00:59:06;;;;;;;41.65;22.27;;;0.80;99.90;;;;;;4991063;28;20306;-63
2023/12/04 01:01:33;;;;;;;41.53;22.08;;;0.90;99.90;;;;;;4991344;28;20051;-63
2023/12/04 01:03:59;;;;;;;44.00;21.80;;;0.90;99.90;;;;;;4990706;28;20076;-63
2023/12/04 01:06:25;;;;;;;40.15;21.30;;;0.90;99.90;;;;;;4992968;28;20050;-63
2023/12/04 01:08:52;;;;;;;36.92;21.48;;;0.80;99.90;;;;;;4991944;28;20113;-64
2023/12/04 01:11:21;;;;;;;36.78;21.15;;;0.80;99.90;;;;;;4991667;28;20049;-63
2023/12/04 01:13:47;;;;;;;40.95;21.67;;;0.80;99.90;;;;;;4990264;28;20068;-63
2023/12/04 01:16:14;;;;;;;40.97;22.52;;;0.90;99.90;;;;;;4990948;28;21390;-63
2023/12/04 01:18:40;;;;;;;36.50;20.27;;;0.80;99.90;;;;;;4992857;28;20453;-63
2023/12/04 01:21:08;;;;;;;36.28;21.25;;;0.90;99.90;;;;;;4994291;28;20045;-63
2023/12/04 01:23:35;;;;;;;34.47;20.08;;;0.90;99.90;;;;;;4997384;28;20053;-63
2023/12/04 01:26:01;;;;;;;37.80;20.73;;;0.80;99.90;;;;;;4998554;28;20053;-63
2023/12/04 01:28:27;;;;;;;35.95;20.05;;;0.90;99.90;;;;;;4994667;28;20050;-63
2023/12/04 01:30:53;;;;;;;35.20;20.05;;;0.80;99.90;;;;;;4997773;28;20052;-63
2023/12/04 01:33:18;;;;;;;35.20;20.38;;;0.90;99.90;;;;;;4990581;28;20041;-63
2023/12/04 01:35:44;;;;;;;39.05;20.98;;;0.90;99.90;;;;;;4992127;28;20036;-63
2023/12/04 01:38:10;;;;;;;32.95;19.27;;;0.80;99.90;;;;;;4992010;28;20037;-63
2023/12/04 01:40:36;;;;;;;36.58;19.30;;;0.90;99.90;;;;;;4993588;28;20054;-64
2023/12/04 01:43:02;;;;;;;36.92;20.80;;;0.80;99.90;;;;;;4994061;28;20125;-64
2023/12/04 01:45:27;;;;;;;35.42;19.05;;;0.80;99.90;;;;;;4976544;28;20042;-63
2023/12/04 01:47:54;;;;;;;31.65;18.80;;;0.90;99.90;;;;;;4993208;28;20041;-63
2023/12/04 01:50:20;;;;;;;34.95;20.30;;;0.90;99.90;;;;;;4993051;28;20042;-63
2023/12/04 01:52:47;;;;;;;36.33;19.25;;;0.90;99.90;;;;;;4992733;28;20243;-63
2023/12/04 01:55:14;;;;;;;34.22;19.25;;;0.80;99.90;;;;;;4992301;28;20041;-63
2023/12/04 01:57:41;;;;;;;31.42;17.77;;;1.00;99.90;;;;;;4994090;28;20045;-63
2023/12/04 02:00:11;;;;;;;34.20;19.83;;;1.00;99.90;;;;;;4994580;28;20046;-64
2023/12/04 02:02:42;;;;;;;33.95;19.40;;;0.90;99.90;;;;;;4996341;28;20045;-63
2023/12/04 02:05:12;;;;;;;31.67;18.65;;;0.90;99.90;;;;;;4995238;28;20587;-63
2023/12/04 02:07:41;;;;;;;38.50;19.85;;;0.90;99.90;;;;;;4995397;28;20085;-63
2023/12/04 02:10:07;;;;;;;36.13;19.90;;;0.80;99.90;;;;;;4994074;28;20045;-63
2023/12/04 02:12:33;;;;;;;36.40;19.63;;;1.00;99.90;;;;;;4991949;28;20871;-63
2023/12/04 02:14:59;;;;;;;32.55;18.55;;;0.90;99.90;;;;;;4991627;28;20112;-63
2023/12/04 02:17:26;;;;;;;33.22;18.75;;;0.90;99.90;;;;;;4993775;28;20038;-63
2023/12/04 02:19:53;;;;;;;33.50;18.83;;;1.00;99.90;;;;;;4991700;28;20100;-63
2023/12/04 02:22:19;;;;;;;34.33;18.65;;;1.00;99.90;;;;;;4990796;28;20038;-63
2023/12/04 02:24:47;;;;;;;34.72;19.73;;;0.90;99.90;;;;;;4992800;28;20537;-63
2023/12/04 02:27:26;;;;;;;34.22;18.17;;;0.90;99.90;;;;;;4993059;28;20096;-63
2023/12/04 02:29:58;;;;;;;36.45;19.30;;;0.90;99.90;;;;;;4990598;28;20042;-63
2023/12/04 02:32:26;;;;;;;32.85;19.05;;;0.80;99.90;;;;;;4992387;28;20042;-63
2023/12/04 02:34:54;;;;;;;36.80;19.20;;;0.90;99.90;;;;;;4993412;28;20049;-63
2023/12/04 02:37:21;;;;;;;37.95;19.85;;;0.80;99.90;;;;;;4990325;28;20038;-63
2023/12/04 02:39:48;;;;;;;35.40;19.55;;;0.80;99.90;;;;;;4994308;28;20041;-63
2023/12/04 02:42:14;;;;;;;32.38;18.92;;;0.90;99.90;;;;;;4992899;28;20577;-62
2023/12/04 02:44:40;;;;;;;34.35;19.02;;;0.80;99.90;;;;;;4993406;28;20052;-62
2023/12/04 02:47:05;;;;;;;31.98;18.73;;;0.80;99.90;;;;;;4994311;28;20045;-62
2023/12/04 02:49:31;;;;;;;30.63;18.33;;;0.90;99.90;;;;;;4993270;28;20038;-63
2023/12/04 02:51:57;;;;;;;32.72;18.92;;;0.90;99.90;;;;;;4994962;28;20314;-62
2023/12/04 02:54:23;;;;;;;32.20;18.75;;;1.00;99.90;;;;;;4994549;28;20073;-63
2023/12/04 02:56:50;;;;;;;30.48;17.60;;;1.00;99.90;;;;;;4991787;28;20038;-63
2023/12/04 02:59:15;;;;;;;36.13;19.98;;;0.90;99.90;;;;;;4996273;28;20045;-62
2023/12/04 03:01:41;;;;;;;33.95;18.60;;;0.90;99.90;;;;;;4992842;28;20076;-63
2023/12/04 03:04:07;;;;;;;35.50;18.35;;;1.00;99.90;;;;;;5000941;28;20220;-63
2023/12/04 03:06:33;;;;;;;32.05;18.92;;;1.00;99.90;;;;;;4991842;28;21559;-63
2023/12/04 03:08:59;;;;;;;34.35;19.02;;;1.00;99.90;;;;;;4993624;28;20037;-65
2023/12/04 03:11:25;;;;;;;33.30;17.83;;;1.00;99.90;;;;;;4994370;28;20048;-63
2023/12/04 03:13:51;;;;;;;33.25;17.60;;;1.10;99.90;;;;;;4992777;28;20108;-63
2023/12/04 03:16:18;;;;;;;29.42;17.83;;;1.00;99.90;;;;;;4986996;28;20493;-63
2023/12/04 03:18:44;;;;;;;33.00;18.10;;;1.00;99.90;;;;;;4993799;28;20127;-63
2023/12/04 03:21:10;;;;;;;32.35;17.95;;;1.00;99.90;;;;;;4993164;28;20042;-62
2023/12/04 03:23:36;;;;;;;33.50;18.88;;;1.00;99.90;;;;;;4994740;28;20055;-63
2023/12/04 03:26:02;;;;;;;30.20;17.33;;;1.00;99.90;;;;;;4994060;28;20475;-62
2023/12/04 03:28:28;;;;;;;32.25;18.35;;;1.10;99.90;;;;;;4993075;28;20456;-63
2023/12/04 03:30:54;;;;;;;36.90;19.40;;;1.00;99.90;;;;;;4994860;28;20077;-63
2023/12/04 03:33:20;;;;;;;31.50;17.13;;;1.10;99.90;;;;;;4994843;28;20156;-63
2023/12/04 03:35:46;;;;;;;32.53;19.35;;;1.10;99.90;;;;;;4989825;28;20502;-63
2023/12/04 03:38:12;;;;;;;31.13;18.02;;;1.10;99.90;;;;;;4989853;28;20060;-63
2023/12/04 03:40:38;;;;;;;31.85;18.38;;;1.00;99.90;;;;;;4992861;28;20042;-63
2023/12/04 03:43:03;;;;;;;32.60;17.67;;;1.10;99.90;;;;;;4992177;28;20030;-63
2023/12/04 03:45:29;;;;;;;30.83;17.20;;;1.10;99.90;;;;;;4993150;28;20527;-63
2023/12/04 03:47:55;;;;;;;33.20;17.85;;;1.10;99.90;;;;;;4991044;28;20337;-63
2023/12/04 03:50:21;;;;;;;33.40;18.13;;;1.10;99.90;;;;;;4995415;28;20052;-63
2023/12/04 03:52:46;;;;;;;32.13;18.75;;;1.10;99.90;;;;;;4991186;28;20107;-62
2023/12/04 03:55:12;;;;;;;30.63;17.80;;;1.00;99.90;;;;;;4993510;28;20085;-63
2023/12/04 03:57:38;;;;;;;30.63;17.75;;;1.20;99.90;;;;;;4991499;28;20496;-63
2023/12/04 04:00:04;;;;;;;31.90;18.08;;;1.10;99.90;;;;;;4992434;28;20042;-62
2023/12/04 04:02:30;;;;;;;32.90;18.45;;;1.10;99.90;;;;;;4991541;28;20038;-62
2023/12/04 04:04:56;;;;;;;30.80;19.42;;;1.10;99.90;;;;;;4993386;28;20057;-63
2023/12/04 04:07:22;;;;;;;35.05;17.92;;;1.10;99.90;;;;;;4976196;28;20469;-62
2023/12/04 04:09:47;;;;;;;33.28;18.23;;;1.20;99.90;;;;;;4993089;28;20054;-63
2023/12/04 04:12:13;;;;;;;31.92;17.77;;;1.10;99.90;;;;;;4992958;28;20041;-62
2023/12/04 04:14:39;;;;;;;33.38;18.50;;;1.10;99.90;;;;;;4994212;28;20165;-62
2023/12/04 04:17:05;;;;;;;32.85;18.20;;;1.10;99.90;;;;;;4986317;28;20065;-62
2023/12/04 04:19:30;;;;;;;36.47;18.20;;;1.20;99.90;;;;;;4993908;28;20038;-62
2023/12/04 04:21:56;;;;;;;29.48;18.13;;;1.10;99.90;;;;;;4991584;28;20501;-63
2023/12/04 04:24:22;;;;;;;31.23;18.30;;;1.20;99.90;;;;;;4991439;28;20679;-62
2023/12/04 04:26:48;;;;;;;35.22;18.98;;;1.20;99.90;;;;;;4993346;28;20595;-62
2023/12/04 04:29:13;;;;;;;33.42;18.98;;;1.20;99.90;;;;;;4990497;28;20520;-63
2023/12/04 04:31:39;;;;;;;31.02;17.58;;;1.10;99.90;;;;;;4993516;28;20042;-63
2023/12/04 04:34:05;;;;;;;36.30;18.73;;;1.20;99.90;;;;;;4993747;28;20046;-63
2023/12/04 04:36:30;;;;;;;31.63;18.75;;;1.20;99.90;;;;;;4988940;28;20038;-62
2023/12/04 04:38:56;;;;;;;33.28;19.15;;;1.10;99.90;;;;;;4990830;28;20132;-63
2023/12/04 04:41:22;;;;;;;31.10;18.02;;;1.10;99.90;;;;;;4990408;28;20064;-62
2023/12/04 04:43:48;;;;;;;35.55;19.05;;;1.20;99.90;;;;;;4994071;28;20045;-62
2023/12/04 04:46:14;;;;;;;32.53;18.05;;;1.10;99.90;;;;;;4994883;28;20056;-64
2023/12/04 04:48:40;;;;;;;32.00;17.95;;;1.10;99.90;;;;;;4993813;28;20320;-63
2023/12/04 04:51:06;;;;;;;31.33;18.15;;;1.20;99.90;;;;;;4993298;28;20147;-62
2023/12/04 04:53:32;;;;;;;33.08;18.30;;;1.20;99.90;;;;;;4997649;28;20065;-63
2023/12/04 04:55:58;;;;;;;29.55;17.30;;;1.20;99.90;;;;;;4997746;28;20125;-62
2023/12/04 04:58:24;;;;;;;32.10;17.17;;;1.20;99.90;;;;;;4990970;28;20234;-63
2023/12/04 05:00:49;;;;;;;33.45;18.23;;;1.20;99.90;;;;;;4998632;28;20068;-63
2023/12/04 05:03:15;;;;;;;34.58;19.02;;;1.10;99.90;;;;;;4997660;28;20049;-62
2023/12/04 05:05:41;;;;;;;28.40;18.25;;;1.20;99.90;;;;;;4997710;28;20041;-63
2023/12/04 05:08:07;;;;;;;31.25;16.80;;;1.20;99.90;;;;;;5000007;28;20078;-63
2023/12/04 05:10:33;;;;;;;31.85;18.02;;;1.10;99.90;;;;;;4997931;28;20042;-62
2023/12/04 05:12:58;;;;;;;30.05;17.10;;;1.20;99.90;;;;;;4997378;28;20045;-63
2023/12/04 05:15:25;;;;;;;30.98;17.58;;;1.30;99.90;;;;;;4990930;28;20049;-63
2023/12/04 05:17:51;;;;;;;32.88;18.33;;;1.20;99.90;;;;;;4997319;28;20044;-63
2023/12/04 05:20:17;;;;;;;30.05;17.70;;;1.20;99.90;;;;;;4995771;28;20464;-63
2023/12/04 05:22:43;;;;;;;29.98;18.25;;;1.20;99.90;;;;;;4997665;28;20048;-62
2023/12/04 05:25:08;;;;;;;31.92;17.40;;;1.20;99.90;;;;;;4996204;28;20057;-62
2023/12/04 05:27:34;;;;;;;34.88;18.58;;;1.20;99.90;;;;;;4996594;28;20104;-62
2023/12/04 05:30:00;;;;;;;32.58;18.23;;;1.10;99.90;;;;;;4995891;28;20155;-62
2023/12/04 05:32:25;;;;;;;32.22;17.42;;;1.30;99.90;;;;;;4996468;28;20044;-62
2023/12/04 05:34:51;;;;;;;30.92;16.92;;;1.20;99.90;;;;;;4995279;28;20064;-62
2023/12/04 05:37:17;;;;;;;31.52;17.77;;;1.20;99.90;;;;;;4996840;28;20072;-62
2023/12/04 05:39:43;;;;;;;29.23;16.60;;;1.30;99.90;;;;;;4994276;28;20041;-63
2023/12/04 05:42:08;;;;;;;30.83;18.23;;;1.20;99.90;;;;;;4991430;28;20512;-62
2023/12/04 05:44:34;;;;;;;27.92;17.23;;;1.20;99.90;;;;;;4996890;28;20450;-62
2023/12/04 05:47:00;;;;;;;29.95;17.60;;;1.20;99.90;;;;;;4997033;28;20041;-63
2023/12/04 05:49:29;;;;;;;27.95;16.63;;;1.20;99.90;;;;;;4994818;28;20045;-63
2023/12/04 05:51:54;;;;;;;30.90;16.70;;;1.30;99.90;;;;;;4995879;28;20075;-61
2023/12/04 05:54:20;;;;;;;27.55;15.88;;;1.30;99.90;;;;;;4997016;28;20521;-62
2023/12/04 05:56:46;;;;;;;30.20;16.77;;;1.20;99.90;;;;;;4995315;28;20428;-62
2023/12/04 05:59:12;;;;;;;31.38;16.73;;;1.20;99.90;;;;;;4993869;28;20663;-62
2023/12/04 06:01:38;;;;;;;26.63;16.67;;;1.30;99.90;;;;;;4996523;28;20124;-62
2023/12/04 06:04:04;;;;;;;32.38;17.92;;;1.20;99.90;;;;;;4993984;28;20037;-62
2023/12/04 06:06:29;;;;;;;30.23;17.48;;;1.30;99.90;;;;;;4995043;28;21003;-62
2023/12/04 06:08:55;;;;;;;29.70;17.65;;;1.20;99.90;;;;;;4993500;28;20563;-63
2023/12/04 06:11:21;;;;;;;28.02;16.60;;;1.20;99.90;;;;;;4991687;28;20037;-62
2023/12/04 06:13:47;;;;;;;29.65;16.58;;;1.20;99.90;;;;;;4994419;28;20088;-62
2023/12/04 06:16:13;;;;;;;30.02;16.98;;;1.30;99.90;;;;;;4972276;28;20571;-62
2023/12/04 06:18:39;;;;;;;25.80;15.93;;;1.20;99.90;;;;;;4992510;28;20149;-62
2023/12/04 06:21:05;;;;;;;28.85;16.33;;;1.20;99.90;;;;;;4988613;28;20136;-62
2023/12/04 06:23:31;;;;;;;28.55;16.58;;;1.20;99.90;;;;;;4991166;28;20042;-62
2023/12/04 06:25:57;;;;;;;27.02;15.73;;;1.20;99.90;;;;;;4988378;28;20038;-62
2023/12/04 06:28:23;;;;;;;28.85;16.60;;;1.20;99.90;;;;;;4987987;28;20163;-63
2023/12/04 06:30:49;;;;;;;28.30;17.00;;;1.20;99.90;;;;;;4969682;28;20049;-62
2023/12/04 06:33:17;;;;;;;31.27;15.95;;;1.30;99.90;;;;;;4987585;28;20038;-62
2023/12/04 06:35:44;;;;;;;29.48;16.70;;;1.20;99.90;;;;;;4989633;28;20432;-62
2023/12/04 06:38:11;;;;;;;29.48;17.45;;;1.30;99.90;;;;;;4982806;28;20042;-62
2023/12/04 06:40:37;;;;;;;26.55;16.17;;;1.20;99.90;;;;;;4988612;28;20823;-62
2023/12/04 06:43:03;;;;;;;25.52;16.27;;;1.20;99.90;;;;;;4984909;28;20046;-63
2023/12/04 06:45:29;;;;;;;28.55;16.27;;;1.20;99.90;;;;;;4970988;28;20887;-62
2023/12/04 06:47:55;;;;;;;29.10;17.33;;;1.20;99.90;;;;;;4987276;28;20092;-62
2023/12/04 06:50:21;;;;;;;26.50;15.43;;;1.30;99.90;;;;;;4990416;28;20121;-62
2023/12/04 06:52:47;;;;;;;27.85;15.75;;;1.20;99.90;;;;;;4990764;28;20274;-62
2023/12/04 06:55:13;;;;;;;24.60;14.45;;;1.30;99.90;;;;;;4990605;28;20152;-62
2023/12/04 06:57:39;;;;;;;26.00;15.27;;;1.20;99.90;;;;;;4992164;28;20580;-62
2023/12/04 07:00:08;;;;;;;27.52;16.73;;;1.20;99.90;;;;;;4990544;28;20038;-62
2023/12/04 07:02:34;;;;;;;;;;;1.20;99.90;;;;;;4987476;28;20041;-62
2023/12/04 07:04:59;;;;;;;25.45;14.85;;;1.20;99.90;;;;;;4991870;28;20477;-62
2023/12/04 07:07:25;;;;;;;27.23;14.57;;;1.30;99.90;;;;;;4989687;28;20040;-62
2023/12/04 07:09:51;;;;;;;27.48;16.55;;;1.20;99.90;;;;;;4989588;28;20045;-62
2023/12/04 07:12:16;;;;;;;26.20;15.50;;;1.20;99.90;;;;;;4983015;28;20045;-62
2023/12/04 07:14:42;;;;;;;26.17;15.73;;;1.20;99.90;;;;;;4989886;28;20049;-62
2023/12/04 07:17:09;;;;;;;23.95;15.00;;;1.20;99.90;;;;;;4993028;28;20040;-62
2023/12/04 07:19:35;;;;;;;25.58;14.93;;;1.20;99.90;;;;;;4994960;28;20567;-63
2023/12/04 07:22:00;;;;;;;28.35;15.98;;;1.20;99.90;;;;;;4992214;28;20042;-62
2023/12/04 07:24:26;;;;;;;23.90;15.10;;;1.20;99.90;;;;;;4999114;28;20052;-62
2023/12/04 07:26:52;;;;;;;37.15;15.63;;;1.20;99.90;;;;;;4997394;28;20107;-62
2023/12/04 07:29:18;;;;;;;26.52;15.65;;;1.20;99.90;;;;;;4998787;28;20459;-63
2023/12/04 07:31:44;;;;;;;27.05;15.63;;;1.20;99.90;;;;;;4995342;28;20520;-62
2023/12/04 07:34:10;;;;;;;24.23;13.40;;;1.20;99.90;;;;;;4973676;28;20057;-62
2023/12/04 07:36:37;;;;;;;23.50;14.82;;;1.20;99.90;;;;;;4993949;28;20056;-62
2023/12/04 07:39:06;;;;;;;24.30;14.95;;;1.20;99.90;;;;;;4985353;28;20453;-61
2023/12/04 07:41:32;;;;;;;24.05;14.68;;;1.20;99.90;;;;;;4981171;28;20037;-62
2023/12/04 07:43:57;;;;;;;26.17;15.32;;;1.20;99.90;;;;;;4992687;28;20100;-62
2023/12/04 07:46:23;;;;;;;22.48;13.90;;;1.20;99.90;;;;;;4996664;28;20390;-62
2023/12/04 07:48:49;;;;;;;23.83;14.55;;;1.20;99.90;;;;;;4994457;28;20750;-63
2023/12/04 07:51:15;;;;;;;24.92;14.57;;;1.20;99.90;;;;;;4999669;28;20121;-64
2023/12/04 07:53:40;;;;;;;23.42;14.68;;;1.20;99.90;;;;;;4986558;28;20081;-65
2023/12/04 07:56:07;;;;;;;23.35;14.30;;;1.30;99.90;;;;;;4990832;28;20041;-64
2023/12/04 07:58:33;;;;;;;23.35;14.82;;;1.30;99.90;;;;;;4998899;28;20108;-64
2023/12/04 08:00:59;;;;;;;23.75;13.88;;;1.30;99.90;;;;;;4998217;28;20082;-64
2023/12/04 08:03:25;;;;;;;22.58;13.73;;;1.30;99.90;;;;;;4993917;28;20058;-64
2023/12/04 08:05:51;;;;;;;22.92;13.77;;;1.30;99.90;;;;;;4995660;28;20149;-63
2023/12/04 08:08:17;;;;;;;22.05;13.75;;;1.30;99.90;;;;;;4992802;28;20415;-65
2023/12/04 08:10:42;;;;;;;23.15;14.00;;;1.30;99.90;;;;;;4989397;28;20596;-63
2023/12/04 08:13:08;;;;;;;28.05;14.90;;;1.30;99.90;;;;;;4985469;28;20440;-64
2023/12/04 08:15:34;;;;;;;21.67;13.18;;;1.40;99.90;;;;;;4986300;28;20441;-64
2023/12/04 08:18:00;;;;;;;21.30;12.55;;;1.30;99.90;;;;;;4997761;28;20456;-63
2023/12/04 08:20:26;;;;;;;24.60;14.32;;;1.30;99.90;;;;;;4998869;28;20038;-63
2023/12/04 08:22:52;;;;;;;21.55;13.05;;;1.40;99.90;;;;;;4995858;28;20033;-63
2023/12/04 08:25:18;;;;;;;21.50;12.50;;;1.40;99.90;;;;;;4995749;28;20076;-63
2023/12/04 08:27:44;;;;;;;23.75;13.90;;;1.40;99.90;;;;;;4999571;28;20038;-63
2023/12/04 08:30:10;;;;;;;19.23;12.55;;;1.50;99.90;;;;;;5002318;28;20512;-64
2023/12/04 08:32:35;;;;;;;20.45;12.80;;;1.50;99.90;;;;;;4985259;28;20357;-63
2023/12/04 08:35:01;;;;;;;21.85;12.82;;;1.50;99.90;;;;;;5002290;28;20034;-63
2023/12/04 08:37:27;;;;;;;19.85;12.02;;;1.50;99.90;;;;;;5000920;28;20686;-63
2023/12/04 08:39:53;;;;;;;20.08;12.18;;;1.60;99.90;;;;;;5001777;28;20508;-64
2023/12/04 08:42:19;;;;;;;19.77;11.75;;;1.60;99.90;;;;;;5001603;28;20512;-63
2023/12/04 08:44:47;;;;;;;18.30;11.57;;;1.60;99.90;;;;;;5002033;28;20044;-63
2023/12/04 08:47:13;;;;;;;20.52;11.95;;;1.60;99.90;;;;;;5001536;28;20050;-63
2023/12/04 08:49:40;;;;;;;20.35;11.50;;;1.60;99.90;;;;;;4982491;28;20356;-64
2023/12/04 08:52:07;;;;;;;20.80;11.95;;;1.60;99.90;;;;;;5000656;28;20042;-64
2023/12/04 08:54:33;;;;;;;19.23;12.02;;;1.60;99.90;;;;;;5003058;28;20046;-64
2023/12/04 08:56:59;;;;;;;17.02;11.00;;;1.60;99.90;;;;;;5003100;28;20103;-63
2023/12/04 08:59:26;;;;;;;18.90;11.23;;;1.60;99.90;;;;;;4997934;28;20038;-63
2023/12/04 09:01:52;;;;;;;18.85;12.70;;;1.70;99.90;;;;;;4999713;28;20509;-63
2023/12/04 09:04:17;;;;;;;17.90;10.85;;;1.60;99.90;;;;;;4975065;28;20037;-63
2023/12/04 09:06:43;;;;;;;19.05;11.68;;;1.60;99.90;;;;;;4999738;28;20052;-63
2023/12/04 09:09:09;;;;;;;17.38;10.95;;;1.60;99.90;;;;;;4977718;28;20042;-63
2023/12/04 09:11:35;;;;;;;18.60;11.38;;;1.70;99.90;;;;;;4997483;28;20571;-63
2023/12/04 09:14:00;;;;;;;20.08;11.18;;;1.70;99.90;;;;;;4985858;28;20053;-63
2023/12/04 09:16:27;;;;;;;17.33;11.63;;;1.70;99.90;;;;;;4997778;28;20226;-63
2023/12/04 09:18:53;;;;;;;18.27;11.02;;;1.70;99.90;;;;;;4992269;28;20046;-63
2023/12/04 09:21:19;;;;;;;19.17;11.43;;;1.70;99.90;;;;;;4989455;28;20586;-63
2023/12/04 09:23:49;;;;;;;16.73;11.02;;;1.70;99.90;;;;;;4988769;28;20056;-63
2023/12/04 09:26:16;;;;;;;17.98;10.45;;;1.80;99.90;;;;;;4993157;28;20076;-63
2023/12/04 09:28:42;;;;;;;14.98;10.13;;;1.70;99.90;;;;;;4987939;28;20467;-63
2023/12/04 09:31:11;;;;;;;17.88;10.63;;;1.70;99.90;;;;;;4989816;28;20531;-63
2023/12/04 09:33:37;;;;;;;14.60;10.15;;;1.70;99.90;;;;;;4999910;28;20045;-63
2023/12/04 09:36:03;;;;;;;15.43;9.70;;;1.80;99.90;;;;;;4997861;28;20798;-63
2023/12/04 09:38:29;;;;;;;15.98;10.10;;;1.70;99.90;;;;;;5000590;28;20449;-62
2023/12/04 09:41:01;;;;;;;18.17;10.45;;;1.80;99.90;;;;;;4999912;28;20085;-63
2023/12/04 09:43:30;;;;;;;16.35;10.40;;;1.80;99.90;;;;;;5001863;28;20401;-63
2023/12/04 09:45:56;;;;;;;;;;;1.80;99.90;;;;;;4993864;28;20672;-63
2023/12/04 09:48:25;;;;;;;15.43;9.70;;;1.90;99.90;;;;;;4996439;28;19930;-63
2023/12/04 09:50:51;;;;;;;;;;;1.90;99.90;;;;;;4993781;28;20136;-63
2023/12/04 09:53:18;;;;;;;14.23;9.60;;;1.80;99.90;;;;;;5002295;28;19921;-63
2023/12/04 09:55:44;;;;;;;17.95;9.68;;;1.90;99.90;;;;;;4996542;28;20049;-63
2023/12/04 09:58:14;;;;;;;14.80;10.00;;;1.90;99.90;;;;;;4994786;28;20073;-63
2023/12/04 10:00:44;;;;;;;16.40;9.05;;;2.00;99.90;;;;;;4997167;28;20041;-63
2023/12/04 10:03:10;;;;;;;13.93;9.50;;;2.00;99.90;;;;;;4996855;28;20111;-64
2023/12/04 10:05:36;;;;;;;14.75;9.93;;;2.00;99.90;;;;;;4995841;28;20140;-64
2023/12/04 10:08:02;;;;;;;13.32;9.05;;;2.00;99.90;;;;;;4996392;28;20056;-63
2023/12/04 10:10:28;;;;;;;15.10;9.38;;;2.00;99.90;;;;;;4996001;28;20038;-63
2023/12/04 10:12:54;;;;;;;17.05;9.63;;;2.10;99.90;;;;;;4995435;28;20046;-63
2023/12/04 10:15:19;;;;;;;13.27;8.70;;;2.10;99.90;;;;;;4997176;28;20679;-64
2023/12/04 10:17:45;;;;;;;13.95;8.38;;;2.20;99.90;;;;;;4995409;28;20604;-64
2023/12/04 10:20:19;;;;;;;14.27;9.40;;;2.20;99.90;;;;;;4991476;28;20042;-63
2023/12/04 10:22:55;;;;;;;15.23;9.18;;;2.30;99.90;;;;;;4993423;28;20061;-64
2023/12/04 10:25:22;;;;;;;12.50;8.45;;;2.30;99.90;;;;;;4994590;28;20088;-63
2023/12/04 10:27:48;;;;;;;13.57;9.10;;;2.30;99.90;;;;;;4995005;28;20053;-63
2023/12/04 10:30:30;;;;;;;14.32;9.25;;;2.40;99.90;;;;;;4996774;28;20050;-63
2023/12/04 10:33:00;;;;;;;13.52;8.93;;;2.40;99.90;;;;;;5001232;28;20038;-64
2023/12/04 10:35:28;;;;;;;12.50;8.43;;;2.40;99.90;;;;;;4997645;28;20128;-64
2023/12/04 10:37:55;;;;;;;14.60;9.20;;;2.40;99.90;;;;;;4993948;28;20684;-64
2023/12/04 10:40:25;;;;;;;13.95;8.30;;;2.40;99.90;;;;;;4988266;28;20049;-64
2023/12/04 10:42:51;;;;;;;12.35;8.15;;;2.40;99.90;;;;;;4994927;28;20038;-64
2023/12/04 10:45:16;;;;;;;12.77;8.48;;;2.40;99.90;;;;;;4995718;28;20080;-63
2023/12/04 10:47:44;;;;;;;13.30;8.13;;;2.40;99.90;;;;;;4999471;28;20045;-63
2023/12/04 10:50:12;;;;;;;11.68;7.43;;;2.40;99.90;;;;;;4998862;28;20045;-63
2023/12/04 10:52:40;;;;;;;11.18;7.90;;;2.40;99.90;;;;;;4993510;28;20131;-64
2023/12/04 10:55:08;;;;;;;11.05;7.47;;;2.40;99.90;;;;;;4994776;28;20096;-64
2023/12/04 10:57:38;;;;;;;14.70;8.00;;;2.40;99.90;;;;;;4991306;28;20045;-64
2023/12/04 11:00:05;;;;;;;11.52;8.23;;;2.40;99.90;;;;;;4995479;28;20650;-65
2023/12/04 11:02:34;;;;;;;12.02;8.43;;;2.40;99.90;;;;;;4992753;28;20065;-64
2023/12/04 11:05:13;;;;;;;11.75;7.97;;;2.50;99.90;;;;;;4992182;28;20057;-64
2023/12/04 11:08:09;;;;;;;12.80;8.07;;;2.50;99.90;;;;;;4996650;28;20050;-63
2023/12/04 11:10:46;;;;;;;16.00;8.43;;;2.60;99.90;;;;;;4982857;28;20574;-64
2023/12/04 11:13:30;;;;;;;11.95;8.00;;;2.60;99.90;;;;;;4995015;28;20096;-64
2023/12/04 11:16:24;;;;;;;13.50;8.15;;;2.70;99.90;;;;;;4994942;28;20046;-66
2023/12/04 11:18:56;;;;;;;13.13;7.47;;;2.80;99.90;;;;;;4991971;28;20736;-65
2023/12/04 11:21:24;;;;;;;11.88;8.27;;;2.80;99.90;;;;;;4990715;28;20156;-65
2023/12/04 11:23:50;;;;;;;11.43;8.23;;;2.80;99.90;;;;;;4994541;28;20125;-65
2023/12/04 11:26:16;;;;;;;13.77;7.90;;;2.90;99.90;;;;;;4994295;28;20502;-66
2023/12/04 11:28:44;;;;;;;10.32;7.38;;;2.90;99.90;;;;;;4993004;28;20069;-64
2023/12/04 11:31:10;;;;;;;13.45;8.63;;;2.90;99.90;;;;;;4998644;28;20044;-64
2023/12/04 11:33:38;;;;;;;12.98;8.18;;;3.00;99.90;;;;;;5001007;28;20108;-65
2023/12/04 11:36:12;;;;;;;12.68;7.82;;;3.00;99.90;;;;;;5001526;28;20045;-65
2023/12/04 11:38:43;;;;;;;13.27;8.95;;;3.00;99.90;;;;;;5000266;28;20056;-67
2023/12/04 11:41:17;;;;;;;11.57;7.90;;;3.00;99.90;;;;;;5000279;28;20496;-65
2023/12/04 11:43:45;;;;;;;13.48;8.05;;;2.90;99.90;;;;;;4999386;28;20037;-66
2023/12/04 11:46:11;;;;;;;12.50;7.97;;;2.90;99.90;;;;;;4998558;28;20038;-65
2023/12/04 11:48:40;;;;;;;13.25;8.82;;;2.90;99.90;;;;;;4998250;28;20061;-64
2023/12/04 11:51:07;;;;;;;12.57;8.43;;;2.90;99.90;;;;;;4999058;28;20045;-65
2023/12/04 11:53:37;;;;;;;13.63;8.18;;;2.90;99.90;;;;;;5001020;28;20042;-65
2023/12/04 11:56:10;;;;;;;10.70;7.47;;;2.90;99.90;;;;;;5000578;28;20516;-65
2023/12/04 11:58:43;;;;;;;12.20;7.82;;;2.80;99.90;;;;;;4999415;28;20033;-66
2023/12/04 12:01:09;;;;;;;11.35;7.82;;;2.80;99.90;;;;;;4998909;28;20042;-65
2023/12/04 12:03:34;;;;;;;11.13;7.43;;;2.80;99.90;;;;;;4994492;28;20100;-65
2023/12/04 12:06:00;;;;;;;11.10;7.32;;;2.80;99.90;;;;;;4999679;28;20125;-65
2023/12/04 12:08:29;;;;;;;11.90;7.82;;;2.80;99.90;;;;;;4982250;28;20194;-65
2023/12/04 12:10:56;;;;;;;12.07;8.18;;;2.70;99.90;;;;;;5000803;28;20505;-65
2023/12/04 12:13:25;;;;;;;11.00;7.28;;;2.70;99.90;;;;;;5000765;28;20125;-65
2023/12/04 12:15:52;;;;;;;10.50;7.88;;;2.60;99.90;;;;;;4999921;28;20257;-65
2023/12/04 12:18:18;;;;;;;13.70;8.02;;;2.60;99.90;;;;;;4996538;28;20042;-65
2023/12/04 12:20:44;;;;;;;12.13;8.80;;;2.60;99.90;;;;;;5001590;28;20524;-65
2023/12/04 12:23:10;;;;;;;15.77;8.65;;;2.60;99.90;;;;;;5000817;28;20256;-65
2023/12/04 12:25:36;;;;;;;12.00;7.63;;;2.70;99.90;;;;;;4999131;28;20066;-65
2023/12/04 12:28:03;;;;;;;12.88;7.85;;;2.70;99.90;;;;;;4999702;28;20037;-66
2023/12/04 12:30:29;;;;;;;15.50;9.50;;;2.60;99.90;;;;;;4997821;28;20061;-65
2023/12/04 12:32:55;;;;;;;12.05;8.35;;;2.60;99.90;;;;;;4993430;28;20153;-66
2023/12/04 12:35:20;;;;;;;11.88;8.48;;;2.70;99.90;;;;;;4999301;28;20046;-64
2023/12/04 12:37:46;;;;;;;14.43;8.38;;;2.60;99.90;;;;;;5000688;28;20382;-66